Time;durP1;ratioP1;P1;durP2;ratioP2;P2;SDS_P1;SDS_P2;PMS_P1;PMS_P2;Temp;Humidity;BMP_temperature;BMP_pressure;BME280_temperature;BME280_humidity;BME280_pressure;Samples;Min_cycle;Max_cycle;Signal;HPM_P1;HPM_P2
2021/12/18 00:01:25;;;;;;;11.00;6.10;;;6.10;99.90;;;6.30;89.40;102853.19;4991284;28;20639;-68
2021/12/18 00:03:53;;;;;;;12.63;6.00;;;6.10;99.90;;;6.37;89.84;102849.59;4992374;28;20650;-68
2021/12/18 00:06:21;;;;;;;9.00;5.77;;;6.20;99.90;;;6.42;88.78;102843.41;4991203;28;20617;-66
2021/12/18 00:08:49;;;;;;;8.90;5.47;;;6.20;99.90;;;6.41;89.04;102848.66;4992517;28;21249;-69
2021/12/18 00:11:16;;;;;;;6.83;4.60;;;6.20;99.90;;;6.38;88.17;102846.97;4993486;28;20610;-69
2021/12/18 00:13:43;;;;;;;9.00;5.60;;;6.20;99.90;;;6.33;87.90;102843.59;4993747;28;20644;-68
2021/12/18 00:16:10;;;;;;;7.90;5.40;;;6.10;99.90;;;6.30;87.85;102848.84;4991120;28;20633;-68
2021/12/18 00:18:37;;;;;;;7.27;4.43;;;6.00;99.90;;;6.28;87.70;102841.97;4991410;28;20642;-68
2021/12/18 00:21:04;;;;;;;6.20;4.60;;;6.00;99.90;;;6.28;87.97;102841.09;4991919;28;20629;-69
2021/12/18 00:23:31;;;;;;;8.60;5.23;;;6.10;99.90;;;6.32;87.72;102841.03;4974327;28;21257;-69
2021/12/18 00:25:58;;;;;;;8.67;5.87;;;6.10;99.90;;;6.35;87.82;102830.59;4993134;28;20624;-69
2021/12/18 00:28:25;;;;;;;11.10;5.80;;;6.20;99.90;;;6.40;89.02;102826.19;4992508;28;20677;-69
2021/12/18 00:30:52;;;;;;;5.67;3.63;;;6.20;99.90;;;6.47;88.67;102830.38;4991223;28;20654;-69
2021/12/18 00:33:20;;;;;;;7.87;4.17;;;6.30;99.90;;;6.44;89.65;102833.88;4958714;28;21005;-68
2021/12/18 00:35:47;;;;;;;6.80;4.90;;;6.30;99.90;;;6.45;90.30;102825.22;4992204;28;20611;-68
2021/12/18 00:38:14;;;;;;;9.10;6.00;;;6.30;99.90;;;6.49;90.26;102820.81;4991526;28;20642;-68
2021/12/18 00:40:59;;;;;;;8.23;5.50;;;6.30;99.90;;;6.53;89.10;102831.09;4971020;28;20654;-68
2021/12/18 00:43:31;;;;;;;6.60;4.67;;;6.40;99.90;;;6.55;88.57;102833.66;4985354;28;20666;-69
2021/12/18 00:46:00;;;;;;;7.53;4.40;;;6.40;99.90;;;6.57;89.35;102834.47;4991428;28;21029;-69
2021/12/18 00:48:27;;;;;;;8.43;5.07;;;6.40;99.90;;;6.57;88.56;102831.88;5006772;28;20632;-69
2021/12/18 00:50:54;;;;;;;8.80;5.20;;;6.40;99.90;;;6.56;89.31;102825.00;4991214;28;20648;-69
2021/12/18 00:53:21;;;;;;;6.93;4.87;;;6.40;99.90;;;6.56;89.22;102828.41;4993347;28;20629;-69
2021/12/18 00:55:51;;;;;;;7.50;5.10;;;6.40;99.90;;;6.54;88.70;102831.97;4990789;28;20710;-68
2021/12/18 00:58:18;;;;;;;8.57;4.50;;;6.30;99.90;;;6.52;89.26;102831.97;4972171;28;20626;-68
2021/12/18 01:00:46;;;;;;;7.27;4.67;;;6.30;99.90;;;6.53;88.98;102832.81;4982596;28;21275;-69
2021/12/18 01:03:19;;;;;;;10.37;6.33;;;6.30;99.90;;;6.51;88.87;102837.19;4991804;28;20666;-69
2021/12/18 01:05:48;;;;;;;7.97;5.13;;;6.40;99.90;;;6.53;89.12;102844.06;4991421;28;20725;-69
2021/12/18 01:08:16;;;;;;;9.87;5.20;;;6.30;99.90;;;6.54;88.73;102840.56;4989588;28;20648;-69
2021/12/18 01:13:19;;;;;;;7.27;5.03;;;6.40;99.90;;;6.58;88.97;102834.44;4974233;28;20628;-69
2021/12/18 01:15:50;;;;;;;10.97;5.80;;;6.40;99.90;;;6.61;89.14;102842.16;4990751;28;20721;-68
2021/12/18 01:23:49;;;;;;;9.60;5.57;;;6.40;99.90;;;6.64;89.69;102838.66;5009713;28;20752;-65
2021/12/18 01:26:17;;;;;;;9.57;6.30;;;6.40;99.90;;;6.66;89.55;102839.47;5011476;28;20659;-65
2021/12/18 01:28:44;;;;;;;11.43;6.13;;;6.40;99.90;;;6.68;90.34;102835.97;4993201;28;21227;-66
2021/12/18 01:31:11;;;;;;;14.80;7.67;;;6.50;99.90;;;6.71;90.32;102832.44;4991156;28;20661;-66
2021/12/18 01:33:37;;;;;;;14.50;7.83;;;6.50;99.90;;;6.72;89.46;102836.75;4989958;28;20734;-66
2021/12/18 01:36:05;;;;;;;17.93;8.87;;;6.50;99.90;;;6.76;89.94;102839.25;4990082;28;20670;-65
2021/12/18 01:38:32;;;;;;;9.97;6.13;;;6.60;99.90;;;6.79;89.57;102836.56;4990927;28;20629;-65
2021/12/18 01:41:02;;;;;;;14.30;7.57;;;6.60;99.90;;;6.81;89.41;102841.75;4990396;28;20665;-66
2021/12/18 01:52:02;;;;;;;10.00;6.10;;;6.60;99.90;;;6.79;88.10;102841.75;4990150;28;20657;-64
2021/12/18 01:54:30;;;;;;;7.20;4.83;;;6.60;99.90;;;6.82;88.43;102848.63;4990917;28;20982;-65
2021/12/18 01:56:59;;;;;;;9.40;5.20;;;6.60;99.90;;;6.79;87.88;102844.34;4990095;28;21096;-66
2021/12/18 01:59:37;;;;;;;13.20;6.50;;;6.60;99.90;;;6.80;88.67;102845.22;4990268;28;20661;-64
2021/12/18 02:02:04;;;;;;;8.60;5.80;;;6.60;99.90;;;6.83;88.13;102832.19;4989310;28;20645;-65
2021/12/18 02:04:31;;;;;;;8.60;5.50;;;6.60;99.90;;;6.83;88.55;102827.00;4973090;28;20670;-63
2021/12/18 02:07:00;;;;;;;10.07;5.70;;;6.60;99.90;;;6.80;88.88;102835.69;4987732;28;20642;-65
2021/12/18 02:09:40;;;;;;;10.53;6.50;;;6.60;99.90;;;6.73;87.85;102830.69;4991539;28;20639;-66
2021/12/18 02:12:07;;;;;;;9.40;6.20;;;6.50;99.90;;;6.67;88.89;102833.38;4989908;28;20638;-64
2021/12/18 02:19:33;;;;;;;9.30;5.07;;;6.40;99.90;;;6.63;88.74;102832.59;4986329;28;20642;-65
2021/12/18 02:20:26;;;;;;;9.30;6.10;;;6.30;99.90;;;6.49;89.02;102832.03;4990207;28;20812;-65
2021/12/18 02:22:56;;;;;;;11.97;6.43;;;6.20;99.90;;;6.42;88.62;102827.84;5010302;28;20627;-65
2021/12/18 02:25:24;;;;;;;7.67;5.50;;;6.20;99.90;;;6.44;89.27;102836.47;5006883;28;20993;-64
2021/12/18 02:27:55;;;;;;;11.20;6.33;;;6.20;99.90;;;6.44;89.65;102840.78;4988110;28;21223;-65
2021/12/18 02:30:22;;;;;;;10.27;6.07;;;6.20;99.90;;;6.46;89.11;102832.09;4991036;28;20630;-65
2021/12/18 02:32:50;;;;;;;13.07;7.00;;;6.20;99.90;;;6.52;89.34;102838.88;4989826;28;20634;-65
2021/12/18 02:35:36;;;;;;;14.50;8.27;;;6.30;99.90;;;6.51;89.17;102842.38;4988614;28;20629;-65
2021/12/18 02:38:27;;;;;;;14.57;7.47;;;6.30;99.90;;;6.49;89.14;102836.38;4988750;28;20642;-65
2021/12/18 02:43:38;;;;;;;12.37;6.63;;;6.30;99.90;;;6.47;90.16;102832.97;4990436;28;20665;-65
2021/12/18 02:46:08;;;;;;;12.27;7.17;;;6.30;99.90;;;6.43;90.39;102836.50;4990776;28;20712;-64
2021/12/18 02:48:39;;;;;;;12.00;6.87;;;6.20;99.90;;;6.41;90.07;102835.69;4971043;28;20634;-64
2021/12/18 02:51:09;;;;;;;7.77;5.50;;;6.20;99.90;;;6.43;89.88;102841.69;4987377;28;20653;-65
2021/12/18 02:53:40;;;;;;;11.50;6.10;;;6.20;99.90;;;6.44;90.16;102835.59;4989565;28;21258;-66
2021/12/18 02:56:10;;;;;;;5.67;4.50;;;6.20;99.90;;;6.46;90.39;102842.47;4988947;28;20653;-63
2021/12/18 02:58:45;;;;;;;10.20;6.97;;;6.30;99.90;;;6.48;89.91;102845.03;4989919;28;20975;-65
2021/12/18 03:01:16;;;;;;;13.03;6.60;;;6.30;99.90;;;6.51;90.46;102843.25;4988707;28;21217;-65
2021/12/18 03:03:45;;;;;;;12.73;6.97;;;6.30;99.90;;;6.50;90.63;102845.84;4991441;28;20664;-65
2021/12/18 03:09:17;;;;;;;13.00;7.13;;;6.40;99.90;;;6.57;90.14;102842.25;4993364;28;20657;-65
2021/12/18 03:25:21;;;;;;;14.93;6.80;;;6.40;99.90;;;6.46;90.77;102834.69;4991604;28;20777;-65
2021/12/18 03:27:49;;;;;;;12.77;7.00;;;6.30;99.90;;;6.46;90.33;102839.88;4991152;28;21028;-65
2021/12/18 03:30:16;;;;;;;12.67;8.00;;;6.30;99.90;;;6.35;91.42;102839.22;4992851;28;20648;-65
2021/12/18 03:32:44;;;;;;;14.20;9.07;;;6.20;99.90;;;6.28;91.88;102845.44;4992630;28;20641;-65
2021/12/18 03:35:14;;;;;;;15.27;7.47;;;6.10;99.90;;;6.25;91.48;102850.66;4993973;28;21179;-63
2021/12/18 03:37:41;;;;;;;15.33;8.73;;;6.10;99.90;;;6.17;91.61;102857.75;4992000;28;20646;-66
2021/12/18 03:40:14;;;;;;;15.37;8.33;;;6.00;99.90;;;6.12;92.05;102846.59;4992710;28;20648;-65
2021/12/18 03:42:41;;;;;;;14.30;8.57;;;6.00;99.90;;;6.04;92.31;102845.88;4988525;28;20663;-65
2021/12/18 03:45:10;;;;;;;15.18;7.82;;;5.90;99.90;;;5.92;93.47;102843.53;4988062;28;20675;-65
2021/12/18 03:47:38;;;;;;;16.57;8.50;;;5.70;99.90;;;5.91;93.05;102836.63;4990100;28;20203;-65
2021/12/18 03:50:06;;;;;;;15.70;9.18;;;5.80;99.90;;;5.80;93.52;102829.00;4990746;28;20665;-64
2021/12/18 03:52:33;;;;;;;21.10;10.10;;;5.70;99.90;;;5.84;93.20;102837.59;4992512;28;20212;-66
2021/12/18 03:55:00;;;;;;;20.73;9.00;;;5.70;99.90;;;5.80;92.95;102834.19;4991528;28;20640;-66
2021/12/18 03:57:27;;;;;;;11.80;6.82;;;5.70;99.90;;;5.73;94.04;102829.97;4993266;28;20631;-66
2021/12/18 03:59:55;;;;;;;13.57;7.90;;;5.60;99.90;;;5.80;93.75;102826.41;4959703;28;20253;-66
2021/12/18 04:02:22;;;;;;;15.85;7.68;;;5.70;99.90;;;5.83;93.50;102834.16;4992146;28;20211;-65
2021/12/18 04:04:50;;;;;;;14.17;8.23;;;5.70;99.90;;;5.81;93.35;102835.91;4992562;28;20231;-65
2021/12/18 04:07:17;;;;;;;18.40;9.00;;;5.70;99.90;;;5.80;93.76;102831.59;5004775;28;21012;-64
2021/12/18 04:09:44;;;;;;;17.10;8.20;;;5.70;99.90;;;5.83;93.28;102831.56;4990838;28;20777;-65
2021/12/18 04:12:11;;;;;;;13.75;7.35;;;5.70;99.90;;;5.87;92.80;102838.41;4991305;28;20199;-65
2021/12/18 04:14:38;;;;;;;15.57;8.33;;;5.80;99.90;;;5.88;92.74;102840.09;4991689;28;20660;-66
2021/12/18 04:17:05;;;;;;;9.00;5.53;;;5.70;99.90;;;5.90;92.64;102843.53;4992061;28;20660;-65
2021/12/18 04:19:34;;;;;;;10.10;6.72;;;5.80;99.90;;;5.88;92.97;102829.75;4992288;28;20756;-65
2021/12/18 04:22:01;;;;;;;11.10;5.90;;;5.80;99.90;;;5.92;92.79;102846.13;4974131;28;20209;-66
2021/12/18 04:24:28;;;;;;;12.17;7.20;;;5.80;99.90;;;5.93;92.68;102838.31;4989504;28;20664;-65
2021/12/18 04:26:55;;;;;;;9.00;5.43;;;5.80;99.90;;;5.96;92.40;102843.41;4991857;28;20626;-65
2021/12/18 04:29:22;;;;;;;11.03;7.17;;;5.80;99.90;;;5.91;92.53;102839.22;4991264;28;21248;-65
2021/12/18 04:31:49;;;;;;;13.63;7.60;;;5.80;99.90;;;5.89;92.69;102835.78;4991188;28;20634;-65
2021/12/18 04:34:16;;;;;;;15.90;7.82;;;5.80;99.90;;;5.87;92.25;102835.81;4991401;28;20620;-65
2021/12/18 04:36:43;;;;;;;12.65;8.02;;;5.70;99.90;;;5.81;92.51;102841.09;4991177;28;20684;-65
2021/12/18 04:39:10;;;;;;;14.65;7.95;;;5.60;99.90;;;5.80;92.69;102838.50;4992015;28;20211;-66
2021/12/18 04:41:49;;;;;;;12.35;6.85;;;5.60;99.90;;;5.77;92.55;102842.00;4992487;28;20222;-65
2021/12/18 04:44:17;;;;;;;11.32;6.95;;;5.60;99.90;;;5.76;91.61;102840.31;4991720;28;20225;-65
2021/12/18 04:46:44;;;;;;;16.45;7.75;;;5.60;99.90;;;5.77;92.30;102839.41;4992178;28;20214;-65
2021/12/18 04:49:11;;;;;;;14.35;6.85;;;5.60;99.90;;;5.76;92.28;102842.03;4974463;28;20214;-65
2021/12/18 04:51:38;;;;;;;13.88;7.75;;;5.60;99.90;;;5.74;92.18;102851.56;4993330;28;20207;-65
2021/12/18 04:54:05;;;;;;;15.10;6.95;;;5.60;99.90;;;5.70;92.66;102844.72;4991518;28;20581;-65
2021/12/18 04:56:32;;;;;;;15.55;7.65;;;5.50;99.90;;;5.75;93.18;102838.56;4991378;28;20199;-65
2021/12/18 04:58:59;;;;;;;12.20;8.13;;;5.60;99.90;;;5.71;92.51;102838.69;4993779;28;20211;-65
2021/12/18 05:01:26;;;;;;;13.70;7.50;;;5.60;99.90;;;5.68;92.99;102847.34;4990155;28;20719;-65
2021/12/18 05:03:54;;;;;;;12.25;8.00;;;5.50;99.90;;;5.71;93.41;102831.75;4992858;28;20199;-66
2021/12/18 05:06:22;;;;;;;13.57;7.20;;;5.50;99.90;;;5.73;93.55;102834.31;4990337;28;20555;-65
2021/12/18 05:08:49;;;;;;;11.10;6.47;;;5.60;99.90;;;5.77;93.16;102839.41;4993095;28;20618;-65
2021/12/18 05:11:16;;;;;;;13.63;7.45;;;5.60;99.90;;;5.77;93.45;102831.63;4990812;28;20654;-65
2021/12/18 05:13:42;;;;;;;9.80;5.63;;;5.70;99.90;;;5.82;93.27;102835.00;4992194;28;20208;-65
2021/12/18 05:16:09;;;;;;;10.70;7.05;;;5.70;99.90;;;5.81;93.36;102828.13;4989451;28;20206;-66
2021/12/18 05:18:37;;;;;;;12.43;6.40;;;5.70;99.90;;;5.79;92.98;102839.41;4992439;28;20645;-65
2021/12/18 05:21:04;;;;;;;15.63;7.22;;;5.60;99.90;;;5.76;93.18;102836.84;4973274;28;20230;-66
2021/12/18 05:23:31;;;;;;;11.63;6.93;;;5.60;99.90;;;5.78;92.91;102842.84;4973032;28;20672;-65
2021/12/18 05:25:57;;;;;;;8.70;5.75;;;5.60;99.90;;;5.74;92.03;102852.44;4990000;28;20656;-66
2021/12/18 05:28:24;;;;;;;15.10;7.40;;;5.60;99.90;;;5.67;92.70;102848.22;4995903;28;20202;-66
2021/12/18 05:30:51;;;;;;;13.03;6.40;;;5.50;99.90;;;5.67;92.85;102843.03;5010524;28;21004;-65
2021/12/18 05:33:18;;;;;;;12.68;6.63;;;5.50;99.90;;;5.69;92.45;102848.19;5005260;28;20641;-65
2021/12/18 05:35:45;;;;;;;12.65;7.47;;;5.50;99.90;;;5.68;92.36;102847.34;4983591;28;20238;-66
2021/12/18 05:38:12;;;;;;;13.05;7.50;;;5.60;99.90;;;5.69;93.21;102848.19;4989420;28;20207;-65
2021/12/18 05:40:39;;;;;;;13.02;7.35;;;5.50;99.90;;;5.67;93.29;102848.22;4991549;28;20728;-65
2021/12/18 05:43:08;;;;;;;9.63;6.25;;;5.60;99.90;;;5.74;92.67;102849.84;4988798;28;20296;-65
2021/12/18 05:45:36;;;;;;;15.93;7.35;;;5.60;99.90;;;5.75;92.86;102851.53;4991150;28;20230;-65
2021/12/18 05:48:04;;;;;;;12.90;7.28;;;5.60;99.90;;;5.76;92.65;102849.81;4991499;28;20212;-64
2021/12/18 05:50:32;;;;;;;12.50;7.30;;;5.60;99.90;;;5.70;92.57;102853.38;4990166;28;20243;-65
2021/12/18 05:53:00;;;;;;;12.90;7.97;;;5.60;99.90;;;5.74;91.98;102862.78;4990585;28;20614;-65
2021/12/18 05:55:30;;;;;;;11.65;7.03;;;5.60;99.90;;;5.74;92.02;102861.94;4989128;28;20199;-65
2021/12/18 05:57:57;;;;;;;11.03;6.57;;;5.60;99.90;;;5.64;92.10;102858.66;4991576;28;20219;-65
2021/12/18 06:00:24;;;;;;;14.85;8.35;;;5.50;99.90;;;5.62;92.92;102862.13;4990085;28;20673;-65
2021/12/18 06:02:51;;;;;;;14.25;8.25;;;5.50;99.90;;;5.57;92.64;102864.78;5002270;28;20204;-65
2021/12/18 06:05:18;;;;;;;14.07;6.97;;;5.40;99.90;;;5.56;92.69;102868.25;4990238;28;20227;-65
2021/12/18 06:07:54;;;;;;;10.48;6.82;;;5.40;99.90;;;5.56;92.24;102857.91;4990069;28;20302;-65
2021/12/18 06:10:33;;;;;;;10.30;7.30;;;5.40;99.90;;;5.54;92.50;102861.41;4990757;28;20242;-65
2021/12/18 06:13:02;;;;;;;10.82;5.88;;;5.40;99.90;;;5.54;92.11;102862.25;4989633;28;20754;-66
2021/12/18 06:15:30;;;;;;;6.83;4.37;;;5.40;99.90;;;5.60;92.24;102863.91;4971208;28;20259;-65
2021/12/18 06:17:59;;;;;;;8.65;5.50;;;5.40;99.90;;;5.56;92.82;102865.66;4991825;28;20634;-65
2021/12/18 06:20:28;;;;;;;12.50;6.88;;;5.40;99.90;;;5.59;92.59;102868.22;4986685;28;20235;-65
2021/12/18 06:22:55;;;;;;;9.55;5.43;;;5.50;99.90;;;5.62;92.23;102872.50;4991341;28;20664;-65
2021/12/18 06:25:22;;;;;;;10.57;6.45;;;5.50;99.90;;;5.65;92.23;102859.47;4991758;28;20588;-65
2021/12/18 06:27:49;;;;;;;14.73;7.18;;;5.50;99.90;;;5.67;92.44;102865.50;4991097;28;20214;-65
2021/12/18 06:30:18;;;;;;;10.83;5.93;;;5.60;99.90;;;5.68;92.24;102868.06;4988669;28;20223;-65
2021/12/18 06:32:46;;;;;;;12.23;7.37;;;5.60;99.90;;;5.62;92.64;102868.19;4990218;28;20621;-65
2021/12/18 06:35:13;;;;;;;13.65;7.28;;;5.50;99.90;;;5.62;92.49;102873.34;4988990;28;20636;-65
2021/12/18 06:37:40;;;;;;;9.98;5.90;;;5.50;99.90;;;5.66;91.92;102877.59;4991537;28;20287;-65
2021/12/18 06:40:08;;;;;;;13.95;7.15;;;5.50;99.90;;;5.67;91.75;102858.59;4990783;28;20227;-64
2021/12/18 06:42:39;;;;;;;8.00;4.43;;;5.60;99.90;;;5.64;91.95;102858.66;4990113;28;20284;-64
2021/12/18 06:45:08;;;;;;;9.30;6.30;;;5.50;99.90;;;5.64;92.33;102866.41;4992570;28;21252;-65
2021/12/18 06:47:35;;;;;;;11.30;6.53;;;5.50;99.90;;;5.64;92.83;102861.25;4993992;28;20243;-65
2021/12/18 06:50:05;;;;;;;13.75;6.38;;;5.50;99.90;;;5.67;92.65;102861.16;4993498;28;20666;-65
2021/12/18 06:52:32;;;;;;;15.37;8.07;;;5.50;99.90;;;5.63;92.97;102863.84;4976631;28;20196;-65
2021/12/18 06:54:59;;;;;;;12.40;7.25;;;5.50;99.90;;;5.66;91.85;102875.03;4994886;28;20629;-65
2021/12/18 06:57:26;;;;;;;14.68;7.95;;;5.50;99.90;;;5.65;92.36;102862.06;4976820;28;20203;-65
2021/12/18 06:59:53;;;;;;;12.25;7.38;;;5.50;99.90;;;5.65;93.40;102868.13;4995585;28;20231;-65
2021/12/18 07:02:20;;;;;;;14.40;7.60;;;5.50;99.90;;;5.79;94.47;102873.06;4994364;28;20242;-66
2021/12/18 07:04:48;;;;;;;11.93;7.13;;;5.60;99.90;;;5.84;93.55;102877.31;4987654;28;20215;-65
2021/12/18 07:07:15;;;;;;;10.90;7.07;;;5.70;99.90;;;5.89;91.55;102877.25;4994413;28;21001;-65
2021/12/18 07:09:41;;;;;;;12.82;7.15;;;5.80;99.90;;;5.91;90.84;102878.94;4991570;28;20672;-65
2021/12/18 07:12:10;;;;;;;11.60;7.50;;;5.80;99.90;;;5.93;90.20;102877.19;4992678;28;20207;-65
2021/12/18 07:14:38;;;;;;;12.07;6.55;;;5.80;99.90;;;5.91;89.16;102881.53;4992835;28;20642;-64
2021/12/18 07:17:05;;;;;;;16.47;7.33;;;5.80;99.90;;;5.87;89.40;102879.88;4993662;28;20208;-65
2021/12/18 07:19:32;;;;;;;11.65;7.20;;;5.70;99.90;;;5.78;89.67;102885.16;5009897;22;20692;-66
2021/12/18 07:22:00;;;;;;;12.00;6.97;;;5.60;99.90;;;5.77;90.23;102886.03;5032702;28;20634;-69
2021/12/18 07:24:27;;;;;;;10.60;6.45;;;5.60;99.90;;;5.77;89.88;102878.25;5053868;28;20715;-68
2021/12/18 07:26:54;;;;;;;12.63;6.57;;;5.60;99.90;;;5.68;89.93;102888.81;5033060;28;20202;-69
2021/12/18 07:29:21;;;;;;;13.05;7.57;;;5.50;99.90;;;5.68;90.06;102883.63;5053248;28;20662;-69
2021/12/18 07:31:49;;;;;;;10.27;6.72;;;5.50;99.90;;;5.60;89.87;102885.44;5032375;28;20197;-69
2021/12/18 07:34:16;;;;;;;14.88;8.07;;;5.50;99.90;;;5.52;90.42;102884.72;5051510;28;20205;-69
2021/12/18 07:36:44;;;;;;;10.93;6.40;;;5.40;99.90;;;5.46;90.59;102892.59;5034977;28;20202;-69
2021/12/18 07:39:12;;;;;;;9.98;5.20;;;5.30;99.90;;;5.51;90.30;102885.63;5051874;28;20205;-69
2021/12/18 07:41:39;;;;;;;12.63;7.10;;;5.40;99.90;;;5.49;90.54;102877.84;5053701;28;20233;-68
2021/12/18 07:44:06;;;;;;;12.57;7.07;;;5.40;99.90;;;5.54;90.68;102877.78;5049595;28;20205;-69
2021/12/18 07:46:35;;;;;;;10.52;6.45;;;5.40;99.90;;;5.56;90.59;102882.97;5052686;28;20257;-68
2021/12/18 07:49:03;;;;;;;11.20;6.65;;;5.40;99.90;;;5.53;91.15;102872.63;5051091;28;20609;-69
2021/12/18 07:51:31;;;;;;;15.10;7.95;;;5.40;99.90;;;5.45;90.96;102870.19;5045888;28;20213;-69
2021/12/18 07:53:58;;;;;;;17.55;7.57;;;5.30;99.90;;;5.45;91.00;102876.19;5052456;28;20204;-69
2021/12/18 07:56:26;;;;;;;21.48;7.95;;;5.30;99.90;;;5.41;91.74;102881.44;5024257;28;20296;-68
2021/12/18 07:58:53;;;;;;;12.70;7.30;;;5.30;99.90;;;5.41;91.52;102868.50;5053962;28;20201;-69
2021/12/18 08:01:20;;;;;;;12.63;7.05;;;5.30;99.90;;;5.39;91.66;102878.00;5050255;28;20704;-69
2021/12/18 08:03:48;;;;;;;10.10;5.50;;;5.30;99.90;;;5.43;91.15;102877.13;5049066;28;20289;-68
2021/12/18 08:06:16;;;;;;;13.93;6.70;;;5.30;99.90;;;5.40;91.43;102878.00;5051673;28;20263;-69
2021/12/18 08:08:43;;;;;;;13.55;6.80;;;5.30;99.90;;;5.45;91.64;102870.19;5051234;28;20193;-69
2021/12/18 08:11:09;;;;;;;12.82;6.97;;;5.40;99.90;;;5.50;91.08;102874.41;5050360;28;20244;-69
2021/12/18 08:13:36;;;;;;;12.50;6.43;;;5.40;99.90;;;5.35;91.28;102881.53;5052260;28;20335;-69
2021/12/18 08:16:04;;;;;;;14.95;7.70;;;5.20;99.90;;;5.37;91.10;102872.00;5051809;28;20297;-69
2021/12/18 08:18:31;;;;;;;15.48;7.88;;;5.20;99.90;;;5.38;91.26;102873.72;5052692;28;20209;-69
2021/12/18 08:20:58;;;;;;;13.93;7.60;;;5.30;99.90;;;5.39;91.44;102880.59;5031490;28;20744;-69
2021/12/18 08:23:25;;;;;;;9.75;6.35;;;5.30;99.90;;;5.40;91.21;102878.00;5052073;28;20691;-68
2021/12/18 08:25:52;;;;;;;14.35;8.20;;;5.30;99.90;;;5.41;90.91;102884.88;5067377;28;20231;-69
2021/12/18 08:28:19;;;;;;;12.00;6.88;;;5.30;99.90;;;5.44;91.11;102879.69;5026528;28;20198;-68
2021/12/18 08:30:46;;;;;;;13.50;7.00;;;5.30;99.90;;;5.47;90.78;102889.97;5039814;28;20213;-68
2021/12/18 08:33:13;;;;;;;13.70;6.88;;;5.40;99.90;;;5.47;90.90;102889.13;5051342;28;20201;-68
2021/12/18 08:35:40;;;;;;;9.48;6.20;;;5.40;99.90;;;5.49;90.70;102889.97;5050251;28;20217;-69
2021/12/18 08:38:07;;;;;;;14.50;7.72;;;5.40;99.90;;;5.50;91.20;102886.47;5050293;28;20201;-69
2021/12/18 08:40:35;;;;;;;15.85;8.07;;;5.40;99.90;;;5.48;90.83;102885.66;5050560;28;20217;-68
2021/12/18 08:43:03;;;;;;;13.40;7.10;;;5.40;99.90;;;5.56;91.41;102882.97;5050431;28;20571;-68
2021/12/18 08:45:30;;;;;;;12.82;6.70;;;5.50;99.90;;;5.62;91.43;102883.72;5051677;28;20339;-65
2021/12/18 08:47:57;;;;;;;12.07;6.97;;;5.60;99.90;;;5.63;90.59;102884.56;5051146;28;20197;-67
2021/12/18 08:50:24;;;;;;;12.90;7.85;;;5.50;99.90;;;5.65;91.01;102887.97;5034089;28;20224;-70
2021/12/18 08:52:52;;;;;;;11.53;7.40;;;5.60;99.90;;;5.61;91.00;102887.19;5032601;28;20227;-71
2021/12/18 08:55:22;;;;;;;14.18;7.40;;;5.50;99.90;;;5.61;90.96;102887.19;5032910;28;20604;-72
2021/12/18 08:57:50;;;;;;;12.70;7.10;;;5.50;99.90;;;5.62;90.70;102886.31;5050007;28;20201;-72
2021/12/18 09:00:23;;;;;;;11.05;6.97;;;5.50;99.90;;;5.66;91.08;102887.09;5033180;28;20618;-71
2021/12/18 09:02:54;;;;;;;10.02;6.40;;;5.60;99.90;;;5.66;90.80;102880.19;5032635;28;20881;-71
2021/12/18 09:05:23;;;;;;;11.70;6.63;;;5.60;99.90;;;5.65;90.83;102881.06;5014722;28;20232;-71
2021/12/18 09:07:50;;;;;;;10.05;6.22;;;5.50;99.90;;;5.67;91.41;102887.06;5037850;28;20202;-71
2021/12/18 09:10:18;;;;;;;11.55;6.20;;;5.60;99.90;;;5.74;90.95;102886.09;5041813;28;20224;-70
2021/12/18 09:12:45;;;;;;;15.27;7.40;;;5.60;99.90;;;5.77;90.70;102886.03;5032818;28;20189;-70
2021/12/18 09:15:12;;;;;;;13.70;6.97;;;5.70;99.90;;;5.80;91.33;102880.81;5048778;28;20712;-71
2021/12/18 09:17:39;;;;;;;13.55;7.82;;;5.70;99.90;;;5.90;90.81;102881.56;5046366;28;20202;-71
2021/12/18 09:20:07;;;;;;;14.25;7.03;;;5.80;99.90;;;5.91;90.21;102883.25;5047538;28;20225;-70
2021/12/18 09:22:34;;;;;;;13.40;6.40;;;5.80;99.90;;;5.94;89.85;102886.63;5058622;28;20201;-72
2021/12/18 09:25:05;;;;;;;12.40;6.95;;;5.90;99.90;;;6.01;89.90;102877.88;5052475;28;20201;-70
2021/12/18 09:27:36;;;;;;;13.40;7.00;;;5.90;99.90;;;6.03;89.90;102886.50;5053289;28;20212;-70
2021/12/18 09:30:07;;;;;;;13.50;7.53;;;6.00;99.90;;;6.06;89.48;102885.59;5016430;28;20232;-68
2021/12/18 09:32:35;;;;;;;11.85;6.68;;;6.00;99.90;;;6.11;88.80;102894.97;5029507;28;21179;-70
2021/12/18 09:35:03;;;;;;;12.27;7.50;;;6.00;99.90;;;6.13;89.26;102890.63;5031569;28;20210;-70
2021/12/18 09:37:30;;;;;;;11.40;6.53;;;6.00;99.90;;;6.17;88.60;102884.53;5033844;28;20635;-70
2021/12/18 09:39:57;;;;;;;15.33;8.63;;;6.10;99.90;;;6.08;88.93;102889.88;5034521;28;20623;-70
2021/12/18 09:42:24;;;;;;;15.87;7.73;;;6.00;99.90;;;6.10;89.45;102875.16;5032827;28;20659;-70
2021/12/18 09:44:52;;;;;;;12.57;8.07;;;6.00;99.90;;;6.08;89.27;102889.00;5030634;28;20624;-70
2021/12/18 09:47:20;;;;;;;11.10;7.00;;;6.00;99.90;;;6.11;88.90;102886.38;5013775;28;20226;-71
2021/12/18 09:49:49;;;;;;;16.27;8.40;;;6.10;99.90;;;6.10;89.63;102875.16;5027438;28;20724;-72
2021/12/18 09:52:16;;;;;;;12.38;7.22;;;6.10;99.90;;;6.09;89.20;102881.19;5046906;28;20634;-71
2021/12/18 09:54:43;;;;;;;12.20;7.60;;;6.00;99.90;;;6.15;88.83;102875.06;5048865;28;20211;-72
2021/12/18 09:57:14;;;;;;;11.45;6.95;;;6.10;99.90;;;6.19;88.79;102867.22;5032397;28;21193;-71
2021/12/18 09:59:41;;;;;;;10.60;7.40;;;6.10;99.90;;;6.20;89.38;102862.84;5050428;28;20323;-72
2021/12/18 10:02:10;;;;;;;12.70;6.43;;;6.20;99.90;;;6.22;89.50;102855.91;5041137;28;20671;-74
2021/12/18 10:04:38;;;;;;;12.02;5.97;;;6.10;99.90;;;6.14;89.53;102863.84;5049130;28;20631;-70
2021/12/18 10:07:20;;;;;;;15.10;7.43;;;6.10;99.90;;;6.10;90.17;102854.41;5050101;28;20217;-70
2021/12/18 10:09:50;;;;;;;13.77;7.70;;;6.00;99.90;;;6.18;89.28;102855.13;5049054;28;20678;-70
2021/12/18 10:12:31;;;;;;;12.40;7.60;;;6.10;99.90;;;6.23;89.87;102853.31;5033885;28;20615;-72
2021/12/18 10:15:14;;;;;;;12.88;8.10;;;6.10;99.90;;;6.31;89.89;102853.13;5015633;28;20632;-69
2021/12/18 10:17:45;;;;;;;14.13;8.17;;;6.20;99.90;;;6.23;89.63;102858.47;5030796;28;20201;-68
2021/12/18 10:20:23;;;;;;;12.43;7.53;;;6.10;99.90;;;6.29;88.67;102847.13;5040088;28;20667;-73
2021/12/18 10:22:54;;;;;;;15.30;7.70;;;6.20;99.90;;;6.27;88.91;102848.91;5042976;28;20668;-72
2021/12/18 10:25:29;;;;;;;13.80;7.50;;;6.20;99.90;;;6.28;89.43;102848.88;5050716;28;20212;-74
2021/12/18 10:28:19;;;;;;;14.07;7.17;;;6.20;99.90;;;6.31;88.34;102850.53;5050708;28;21199;-73
2021/12/18 10:30:48;;;;;;;12.57;7.70;;;6.20;99.90;;;6.26;88.62;102842.84;5032191;28;20620;-70
2021/12/18 10:33:15;;;;;;;12.77;7.20;;;6.20;99.90;;;6.34;89.17;102839.28;5050373;28;20693;-71
2021/12/18 10:35:50;;;;;;;12.63;6.93;;;6.20;99.90;;;6.35;88.73;102844.41;5050607;28;21098;-69
2021/12/18 10:38:55;;;;;;;12.27;6.93;;;6.30;99.90;;;6.36;88.86;102843.53;5032667;28;20638;-71
2021/12/18 10:41:35;;;;;;;12.80;7.97;;;6.30;99.90;;;6.30;89.44;102820.34;5050346;28;21232;-73
2021/12/18 10:44:09;;;;;;;10.20;5.97;;;6.20;99.90;;;6.40;88.96;102824.44;5049153;28;20205;-73
2021/12/18 10:46:45;;;;;;;11.70;7.03;;;6.30;99.90;;;6.42;89.56;102827.00;5049542;28;20652;-71
2021/12/18 10:49:16;;;;;;;9.60;4.78;;;6.30;99.90;;;6.46;88.86;102824.31;5014871;28;20659;-72
2021/12/18 10:51:45;;;;;;;11.60;6.10;;;6.40;99.90;;;6.41;88.34;102815.75;5028896;28;20312;-73
2021/12/18 10:54:22;;;;;;;9.80;6.07;;;6.30;99.90;;;6.45;88.73;102816.56;5031235;28;20719;-69
2021/12/18 10:56:52;;;;;;;10.50;6.43;;;6.30;99.90;;;6.41;88.54;102809.75;5046889;28;20726;-70
2021/12/18 10:59:25;;;;;;;12.07;6.60;;;6.40;99.90;;;6.43;88.72;102810.56;5049933;28;21245;-70
2021/12/18 11:01:58;;;;;;;9.13;5.20;;;6.30;99.90;;;6.40;89.23;102802.84;5047662;28;21081;-71
2021/12/18 11:04:32;;;;;;;13.23;6.63;;;6.30;99.90;;;6.32;88.90;102799.56;5023189;28;20627;-70
2021/12/18 11:07:18;;;;;;;14.30;7.50;;;6.20;99.90;;;6.32;89.70;102807.34;5047151;28;20726;-71